sensor_id;sensor_type;location;lat;lon;timestamp;pressure;altitude;pressure_sealevel;temperature;humidity
70589;BME280;58152;49.202;18.744;2023-03-25T00:02:07;96431.72;;;13.13;65.83
70589;BME280;58152;49.202;18.744;2023-03-25T00:04:33;96441.94;;;13.18;65.72
70589;BME280;58152;49.202;18.744;2023-03-25T00:07:00;96437.00;;;13.13;66.17
70589;BME280;58152;49.202;18.744;2023-03-25T00:09:29;96428.38;;;13.11;66.44
70589;BME280;58152;49.202;18.744;2023-03-25T00:11:54;96444.69;;;13.16;66.10
70589;BME280;58152;49.202;18.744;2023-03-25T00:14:20;96439.63;;;13.13;66.44
70589;BME280;58152;49.202;18.744;2023-03-25T00:16:47;96439.53;;;13.15;66.15
70589;BME280;58152;49.202;18.744;2023-03-25T00:19:19;96442.50;;;13.10;66.24
70589;BME280;58152;49.202;18.744;2023-03-25T00:21:50;96447.75;;;13.10;66.42
70589;BME280;58152;49.202;18.744;2023-03-25T00:24:16;96441.09;;;13.05;65.89
70589;BME280;58152;49.202;18.744;2023-03-25T00:26:46;96440.19;;;13.06;66.29
70589;BME280;58152;49.202;18.744;2023-03-25T00:29:13;96431.63;;;13.02;66.17
70589;BME280;58152;49.202;18.744;2023-03-25T00:31:39;96435.84;;;13.05;66.17
70589;BME280;58152;49.202;18.744;2023-03-25T00:34:08;96424.78;;;13.00;66.28
70589;BME280;58152;49.202;18.744;2023-03-25T00:36:36;96424.91;;;12.98;66.63
70589;BME280;58152;49.202;18.744;2023-03-25T00:39:03;96421.50;;;12.96;66.47
70589;BME280;58152;49.202;18.744;2023-03-25T00:41:34;96409.50;;;12.92;66.33
70589;BME280;58152;49.202;18.744;2023-03-25T00:44:02;96423.63;;;12.91;66.31
70589;BME280;58152;49.202;18.744;2023-03-25T00:46:29;96428.19;;;12.89;66.15
70589;BME280;58152;49.202;18.744;2023-03-25T00:48:56;96438.06;;;12.85;66.12
70589;BME280;58152;49.202;18.744;2023-03-25T00:51:23;96432.41;;;12.79;66.25
70589;BME280;58152;49.202;18.744;2023-03-25T00:53:54;96420.78;;;12.81;66.77
70589;BME280;58152;49.202;18.744;2023-03-25T00:56:21;96422.69;;;12.79;66.84
70589;BME280;58152;49.202;18.744;2023-03-25T00:58:47;96414.16;;;12.76;66.60
70589;BME280;58152;49.202;18.744;2023-03-25T01:01:15;96403.75;;;12.74;66.93
70589;BME280;58152;49.202;18.744;2023-03-25T01:03:43;96402.88;;;12.73;66.78
70589;BME280;58152;49.202;18.744;2023-03-25T01:06:13;96401.97;;;12.75;67.08
70589;BME280;58152;49.202;18.744;2023-03-25T01:08:40;96388.06;;;12.72;67.06
70589;BME280;58152;49.202;18.744;2023-03-25T01:11:19;96411.41;;;12.77;67.16
70589;BME280;58152;49.202;18.744;2023-03-25T01:13:45;96409.88;;;12.75;66.93
70589;BME280;58152;49.202;18.744;2023-03-25T01:16:10;96401.31;;;12.71;66.95
70589;BME280;58152;49.202;18.744;2023-03-25T01:18:36;96411.66;;;12.74;67.13
70589;BME280;58152;49.202;18.744;2023-03-25T01:21:06;96416.91;;;12.74;66.91
70589;BME280;58152;49.202;18.744;2023-03-25T01:23:32;96404.78;;;12.71;67.03
70589;BME280;58152;49.202;18.744;2023-03-25T01:25:59;96400.56;;;12.69;66.82
70589;BME280;58152;49.202;18.744;2023-03-25T01:28:25;96399.72;;;12.68;67.33
70589;BME280;58152;49.202;18.744;2023-03-25T01:30:59;96404.78;;;12.71;66.95
70589;BME280;58152;49.202;18.744;2023-03-25T01:33:25;96399.72;;;12.68;67.01
70589;BME280;58152;49.202;18.744;2023-03-25T01:35:51;96405.63;;;12.72;67.08
70589;BME280;58152;49.202;18.744;2023-03-25T01:38:17;96392.06;;;12.65;67.09
70589;BME280;58152;49.202;18.744;2023-03-25T01:40:45;96400.81;;;12.66;67.36
70589;BME280;58152;49.202;18.744;2023-03-25T01:43:11;96396.25;;;12.68;67.33
70589;BME280;58152;49.202;18.744;2023-03-25T01:45:37;96397.94;;;12.69;67.08
70589;BME280;58152;49.202;18.744;2023-03-25T01:48:16;96399.97;;;12.65;66.96
70589;BME280;58152;49.202;18.744;2023-03-25T01:50:46;96400.88;;;12.64;66.93
70589;BME280;58152;49.202;18.744;2023-03-25T01:53:14;96417.63;;;12.63;67.13
70589;BME280;58152;49.202;18.744;2023-03-25T01:55:42;96414.28;;;12.61;67.27
70589;BME280;58152;49.202;18.744;2023-03-25T01:58:11;96408.06;;;12.62;67.30
70589;BME280;58152;49.202;18.744;2023-03-25T02:00:40;96409.00;;;12.61;67.24
70589;BME280;58152;49.202;18.744;2023-03-25T02:03:08;96401.44;;;12.57;67.57
70589;BME280;58152;49.202;18.744;2023-03-25T02:05:54;96405.63;;;12.59;67.33
70589;BME280;58152;49.202;18.744;2023-03-25T02:08:22;96390.28;;;12.53;67.44
70589;BME280;58152;49.202;18.744;2023-03-25T02:10:49;96398.81;;;12.57;67.53
70589;BME280;58152;49.202;18.744;2023-03-25T02:13:17;96402.38;;;12.56;67.52
70589;BME280;58152;49.202;18.744;2023-03-25T02:18:45;96395.41;;;12.55;68.03
70589;BME280;58152;49.202;18.744;2023-03-25T02:21:50;96402.28;;;12.57;68.88
70589;BME280;58152;49.202;18.744;2023-03-25T02:27:50;96387.13;;;12.48;68.59
70589;BME280;58152;49.202;18.744;2023-03-25T02:30:28;96395.72;;;12.50;69.93
70589;BME280;58152;49.202;18.744;2023-03-25T02:41:13;96383.31;;;12.39;68.64
70589;BME280;58152;49.202;18.744;2023-03-25T02:44:17;96366.91;;;12.36;68.88
70589;BME280;58152;49.202;18.744;2023-03-25T02:46:52;96373.00;;;12.36;68.46
70589;BME280;58152;49.202;18.744;2023-03-25T02:49:26;96372.91;;;12.38;68.64
70589;BME280;58152;49.202;18.744;2023-03-25T02:52:06;96372.06;;;12.37;68.73
70589;BME280;58152;49.202;18.744;2023-03-25T02:54:34;96378.16;;;12.38;68.05
70589;BME280;58152;49.202;18.744;2023-03-25T02:57:01;96380.88;;;12.36;68.53
70589;BME280;58152;49.202;18.744;2023-03-25T02:59:29;96391.53;;;12.35;68.00
70589;BME280;58152;49.202;18.744;2023-03-25T03:01:58;96398.47;;;12.36;67.96
70589;BME280;58152;49.202;18.744;2023-03-25T03:04:24;96402.75;;;12.37;68.29
70589;BME280;58152;49.202;18.744;2023-03-25T03:06:51;96392.56;;;12.32;68.54
70589;BME280;58152;49.202;18.744;2023-03-25T03:09:31;96405.50;;;12.35;68.82
70589;BME280;58152;49.202;18.744;2023-03-25T03:12:40;96414.25;;;12.36;68.86
70589;BME280;58152;49.202;18.744;2023-03-25T03:15:32;96416.34;;;12.31;68.21
70589;BME280;58152;49.202;18.744;2023-03-25T03:20:43;96411.19;;;12.29;68.28
70589;BME280;58152;49.202;18.744;2023-03-25T03:26:10;96398.13;;;12.28;67.95
70589;BME280;58152;49.202;18.744;2023-03-25T03:28:47;96389.63;;;12.24;68.23
70589;BME280;58152;49.202;18.744;2023-03-25T03:31:40;96391.94;;;12.29;68.59
70589;BME280;58152;49.202;18.744;2023-03-25T03:34:11;96393.81;;;12.27;68.45
70589;BME280;58152;49.202;18.744;2023-03-25T03:36:59;96404.03;;;12.31;69.00
70589;BME280;58152;49.202;18.744;2023-03-25T03:39:27;96405.63;;;12.34;69.43
70589;BME280;58152;49.202;18.744;2023-03-25T03:42:01;96398.13;;;12.28;68.60
70589;BME280;58152;49.202;18.744;2023-03-25T03:44:35;96411.38;;;12.26;68.04
70589;BME280;58152;49.202;18.744;2023-03-25T03:47:10;96416.66;;;12.26;68.39
70589;BME280;58152;49.202;18.744;2023-03-25T03:49:50;96422.84;;;12.25;68.33
70589;BME280;58152;49.202;18.744;2023-03-25T03:52:21;96415.91;;;12.24;67.75
70589;BME280;58152;49.202;18.744;2023-03-25T03:54:59;96430.63;;;12.27;68.10
70589;BME280;58152;49.202;18.744;2023-03-25T04:00:07;96436.19;;;12.22;67.52
70589;BME280;58152;49.202;18.744;2023-03-25T04:02:47;96437.03;;;12.23;67.99
70589;BME280;58152;49.202;18.744;2023-03-25T04:05:16;96441.47;;;12.22;67.65
70589;BME280;58152;49.202;18.744;2023-03-25T04:07:52;96441.56;;;12.20;67.23
70589;BME280;58152;49.202;18.744;2023-03-25T04:10:34;96451.03;;;12.23;67.79
70589;BME280;58152;49.202;18.744;2023-03-25T04:13:07;96447.78;;;12.19;66.81
70589;BME280;58152;49.202;18.744;2023-03-25T04:15:34;96453.75;;;12.21;66.95
70589;BME280;58152;49.202;18.744;2023-03-25T04:18:00;96451.44;;;12.17;66.99
70589;BME280;58152;49.202;18.744;2023-03-25T04:20:27;96449.88;;;12.14;66.58
70589;BME280;58152;49.202;18.744;2023-03-25T04:22:58;96453.66;;;12.10;66.28
70589;BME280;58152;49.202;18.744;2023-03-25T04:25:24;96454.47;;;12.11;65.58
70589;BME280;58152;49.202;18.744;2023-03-25T04:27:50;96444.91;;;12.10;66.18
70589;BME280;58152;49.202;18.744;2023-03-25T04:30:23;96445.13;;;12.07;65.67
70589;BME280;58152;49.202;18.744;2023-03-25T04:32:53;96465.84;;;12.11;65.95
70589;BME280;58152;49.202;18.744;2023-03-25T04:35:19;96467.72;;;12.09;65.57
70589;BME280;58152;49.202;18.744;2023-03-25T04:37:45;96462.97;;;12.02;65.11
70589;BME280;58152;49.202;18.744;2023-03-25T04:40:14;96460.41;;;12.00;64.77
70589;BME280;58152;49.202;18.744;2023-03-25T04:42:43;96452.84;;;11.95;64.76
70589;BME280;58152;49.202;18.744;2023-03-25T04:45:11;96461.78;;;11.93;64.64
70589;BME280;58152;49.202;18.744;2023-03-25T04:47:39;96455.22;;;11.86;64.47
70589;BME280;58152;49.202;18.744;2023-03-25T04:52:46;96463.09;;;11.86;64.04
70589;BME280;58152;49.202;18.744;2023-03-25T04:55:12;96461.44;;;11.85;64.06
70589;BME280;58152;49.202;18.744;2023-03-25T04:57:43;96453.66;;;11.83;64.08
70589;BME280;58152;49.202;18.744;2023-03-25T05:00:10;96455.44;;;11.83;63.88
70589;BME280;58152;49.202;18.744;2023-03-25T05:02:35;96452.97;;;11.80;63.35
70589;BME280;58152;49.202;18.744;2023-03-25T05:05:02;96471.38;;;11.80;63.34
70589;BME280;58152;49.202;18.744;2023-03-25T05:07:28;96456.91;;;11.73;63.27
70589;BME280;58152;49.202;18.744;2023-03-25T05:09:54;96473.34;;;11.76;63.28
70589;BME280;58152;49.202;18.744;2023-03-25T05:12:21;96458.63;;;11.74;62.81
70589;BME280;58152;49.202;18.744;2023-03-25T05:14:47;96462.28;;;11.71;62.72
70589;BME280;58152;49.202;18.744;2023-03-25T05:17:12;96500.44;;;11.77;62.77
70589;BME280;58152;49.202;18.744;2023-03-25T05:19:38;96503.28;;;11.74;62.76
70589;BME280;58152;49.202;18.744;2023-03-25T05:22:08;96516.44;;;11.74;62.47
70589;BME280;58152;49.202;18.744;2023-03-25T05:24:33;96507.72;;;11.73;62.51
70589;BME280;58152;49.202;18.744;2023-03-25T05:26:59;96496.63;;;11.68;62.50
70589;BME280;58152;49.202;18.744;2023-03-25T05:29:26;96496.31;;;11.73;62.22
70589;BME280;58152;49.202;18.744;2023-03-25T05:31:55;96475.59;;;11.68;62.31
70589;BME280;58152;49.202;18.744;2023-03-25T05:34:20;96490.53;;;11.67;62.25
70589;BME280;58152;49.202;18.744;2023-03-25T05:36:46;96500.13;;;11.68;62.03
70589;BME280;58152;49.202;18.744;2023-03-25T05:39:11;96494.09;;;11.66;61.80
70589;BME280;58152;49.202;18.744;2023-03-25T05:41:37;96501.81;;;11.69;62.51
70589;BME280;58152;49.202;18.744;2023-03-25T05:44:06;96505.56;;;11.65;62.10
70589;BME280;58152;49.202;18.744;2023-03-25T05:46:32;96515.00;;;11.68;62.05
70589;BME280;58152;49.202;18.744;2023-03-25T05:48:58;96518.59;;;11.67;61.59
70589;BME280;58152;49.202;18.744;2023-03-25T05:51:25;96517.63;;;11.68;61.84
70589;BME280;58152;49.202;18.744;2023-03-25T05:53:51;96509.97;;;11.65;61.85
70589;BME280;58152;49.202;18.744;2023-03-25T05:56:19;96517.84;;;11.65;62.10
70589;BME280;58152;49.202;18.744;2023-03-25T05:58:46;96506.41;;;11.66;61.73
70589;BME280;58152;49.202;18.744;2023-03-25T06:01:12;96507.53;;;11.62;62.06
70589;BME280;58152;49.202;18.744;2023-03-25T06:03:40;96509.22;;;11.63;62.08
70589;BME280;58152;49.202;18.744;2023-03-25T06:06:10;96523.09;;;11.65;62.28
70589;BME280;58152;49.202;18.744;2023-03-25T06:08:48;96519.44;;;11.67;61.47
70589;BME280;58152;49.202;18.744;2023-03-25T06:11:15;96524.78;;;11.66;62.10
70589;BME280;58152;49.202;18.744;2023-03-25T06:13:46;96529.94;;;11.67;61.64
70589;BME280;58152;49.202;18.744;2023-03-25T06:16:21;96533.22;;;11.71;61.69
70589;BME280;58152;49.202;18.744;2023-03-25T06:18:49;96535.84;;;11.71;62.11
70589;BME280;58152;49.202;18.744;2023-03-25T06:21:18;96536.97;;;11.67;61.77
70589;BME280;58152;49.202;18.744;2023-03-25T06:23:45;96540.56;;;11.66;62.16
70589;BME280;58152;49.202;18.744;2023-03-25T06:26:15;96538.22;;;11.61;61.88
70589;BME280;58152;49.202;18.744;2023-03-25T06:28:43;96542.53;;;11.62;62.01
70589;BME280;58152;49.202;18.744;2023-03-25T06:31:15;96539.06;;;11.62;61.55
70589;BME280;58152;49.202;18.744;2023-03-25T06:33:45;96552.38;;;11.59;61.40
70589;BME280;58152;49.202;18.744;2023-03-25T06:36:12;96529.78;;;11.56;61.55
70589;BME280;58152;49.202;18.744;2023-03-25T06:38:45;96535.03;;;11.56;61.94
70589;BME280;58152;49.202;18.744;2023-03-25T06:41:15;96525.53;;;11.54;61.26
70589;BME280;58152;49.202;18.744;2023-03-25T06:43:45;96520.00;;;11.58;62.12
70589;BME280;58152;49.202;18.744;2023-03-25T06:46:11;96521.63;;;11.61;61.74
70589;BME280;58152;49.202;18.744;2023-03-25T06:48:37;96510.25;;;11.60;62.06
70589;BME280;58152;49.202;18.744;2023-03-25T06:51:02;96509.72;;;11.55;61.45
70589;BME280;58152;49.202;18.744;2023-03-25T06:53:28;96516.34;;;11.61;61.92
70589;BME280;58152;49.202;18.744;2023-03-25T06:55:56;96516.47;;;11.59;61.38
70589;BME280;58152;49.202;18.744;2023-03-25T06:58:24;96514.69;;;11.60;61.59
70589;BME280;58152;49.202;18.744;2023-03-25T07:00:53;96514.47;;;11.63;61.53
70589;BME280;58152;49.202;18.744;2023-03-25T07:03:19;96505.66;;;11.64;61.58
70589;BME280;58152;49.202;18.744;2023-03-25T07:05:46;96504.72;;;11.65;62.08
70589;BME280;58152;49.202;18.744;2023-03-25T07:08:12;96509.97;;;11.65;61.82
70589;BME280;58152;49.202;18.744;2023-03-25T07:10:40;96514.19;;;11.67;62.09
70589;BME280;58152;49.202;18.744;2023-03-25T07:13:05;96526.28;;;11.70;61.54
70589;BME280;58152;49.202;18.744;2023-03-25T07:15:31;96510.72;;;11.67;60.91
70589;BME280;58152;49.202;18.744;2023-03-25T07:17:56;96506.09;;;11.70;60.88
70589;BME280;58152;49.202;18.744;2023-03-25T07:20:21;96522.31;;;11.77;61.06
70589;BME280;58152;49.202;18.744;2023-03-25T07:22:47;96518.66;;;11.80;60.78
70589;BME280;58152;49.202;18.744;2023-03-25T07:25:12;96516.78;;;11.82;60.65
70589;BME280;58152;49.202;18.744;2023-03-25T07:27:38;96514.66;;;11.88;60.91
70589;BME280;58152;49.202;18.744;2023-03-25T07:30:05;96513.41;;;11.94;60.93
70589;BME280;58152;49.202;18.744;2023-03-25T07:32:31;96515.56;;;12.02;60.59
70589;BME280;58152;49.202;18.744;2023-03-25T07:34:56;96513.75;;;12.02;60.61
70589;BME280;58152;49.202;18.744;2023-03-25T07:37:21;96512.41;;;12.09;60.35
70589;BME280;58152;49.202;18.744;2023-03-25T07:39:47;96508.03;;;12.10;59.90
70589;BME280;58152;49.202;18.744;2023-03-25T07:42:12;96513.16;;;12.11;60.26
70589;BME280;58152;49.202;18.744;2023-03-25T07:44:38;96528.53;;;12.17;59.66
70589;BME280;58152;49.202;18.744;2023-03-25T07:47:05;96523.94;;;12.21;60.02
70589;BME280;58152;49.202;18.744;2023-03-25T07:49:32;96519.91;;;12.15;60.50
70589;BME280;58152;49.202;18.744;2023-03-25T07:51:57;96517.19;;;12.17;60.28
70589;BME280;58152;49.202;18.744;2023-03-25T07:54:23;96526.03;;;12.16;60.10
70589;BME280;58152;49.202;18.744;2023-03-25T07:56:49;96517.94;;;12.19;59.93
70589;BME280;58152;49.202;18.744;2023-03-25T07:59:17;96520.34;;;12.22;60.09
70589;BME280;58152;49.202;18.744;2023-03-25T08:01:43;96511.81;;;12.18;60.08
70589;BME280;58152;49.202;18.744;2023-03-25T08:04:10;96507.31;;;12.20;59.55
70589;BME280;58152;49.202;18.744;2023-03-25T08:06:40;96521.44;;;12.32;59.60
70589;BME280;58152;49.202;18.744;2023-03-25T08:09:20;96513.53;;;12.32;59.81
70589;BME280;58152;49.202;18.744;2023-03-25T08:11:46;96514.09;;;12.37;59.32
70589;BME280;58152;49.202;18.744;2023-03-25T08:14:12;96507.91;;;12.38;59.77
70589;BME280;58152;49.202;18.744;2023-03-25T08:16:38;96521.41;;;12.46;59.67
70589;BME280;58152;49.202;18.744;2023-03-25T08:19:03;96508.53;;;12.42;59.13
70589;BME280;58152;49.202;18.744;2023-03-25T08:21:29;96510.22;;;12.43;59.30
70589;BME280;58152;49.202;18.744;2023-03-25T08:23:55;96506.00;;;12.40;59.29
70589;BME280;58152;49.202;18.744;2023-03-25T08:26:27;96503.16;;;12.43;59.32
70589;BME280;58152;49.202;18.744;2023-03-25T08:28:54;96508.63;;;12.40;59.00
70589;BME280;58152;49.202;18.744;2023-03-25T08:31:23;96489.69;;;12.35;59.11
70589;BME280;58152;49.202;18.744;2023-03-25T08:33:48;96505.81;;;12.43;59.13
70589;BME280;58152;49.202;18.744;2023-03-25T08:36:14;96511.28;;;12.53;59.15
70589;BME280;58152;49.202;18.744;2023-03-25T08:38:44;96506.03;;;12.53;58.25
70589;BME280;58152;49.202;18.744;2023-03-25T08:41:10;96513.72;;;12.56;58.85
70589;BME280;58152;49.202;18.744;2023-03-25T08:43:35;96496.34;;;12.54;58.60
70589;BME280;58152;49.202;18.744;2023-03-25T08:46:04;96494.66;;;12.53;58.79
70589;BME280;58152;49.202;18.744;2023-03-25T08:48:30;96503.28;;;12.55;58.57
70589;BME280;58152;49.202;18.744;2023-03-25T08:50:56;96501.41;;;12.57;58.37
70589;BME280;58152;49.202;18.744;2023-03-25T08:53:22;96491.84;;;12.56;57.83
70589;BME280;58152;49.202;18.744;2023-03-25T08:55:52;96502.91;;;12.61;58.21
70589;BME280;58152;49.202;18.744;2023-03-25T08:58:17;96493.94;;;12.63;57.95
70589;BME280;58152;49.202;18.744;2023-03-25T09:00:43;96495.22;;;12.70;57.91
70589;BME280;58152;49.202;18.744;2023-03-25T09:03:08;96488.69;;;12.76;57.82
70589;BME280;58152;49.202;18.744;2023-03-25T09:05:37;96479.97;;;12.76;57.27
70589;BME280;58152;49.202;18.744;2023-03-25T09:08:04;96480.09;;;12.74;57.76
70589;BME280;58152;49.202;18.744;2023-03-25T09:10:30;96474.91;;;12.72;57.21
70589;BME280;58152;49.202;18.744;2023-03-25T09:12:55;96458.91;;;12.76;57.14
70589;BME280;58152;49.202;18.744;2023-03-25T09:15:21;96457.66;;;12.81;56.94
70589;BME280;58152;49.202;18.744;2023-03-25T09:17:47;96467.66;;;12.89;56.93
70589;BME280;58152;49.202;18.744;2023-03-25T09:20:12;96461.13;;;12.94;56.91
70589;BME280;58152;49.202;18.744;2023-03-25T09:22:38;96463.63;;;12.96;56.10
70589;BME280;58152;49.202;18.744;2023-03-25T09:25:05;96454.19;;;12.93;55.78
70589;BME280;58152;49.202;18.744;2023-03-25T09:27:33;96453.53;;;12.90;56.27
70589;BME280;58152;49.202;18.744;2023-03-25T09:29:59;96453.03;;;12.97;55.96
70589;BME280;58152;49.202;18.744;2023-03-25T09:32:25;96455.44;;;13.01;55.98
70589;BME280;58152;49.202;18.744;2023-03-25T09:34:50;96431.31;;;13.07;55.50
70589;BME280;58152;49.202;18.744;2023-03-25T09:37:17;96435.81;;;13.17;55.51
70589;BME280;58152;49.202;18.744;2023-03-25T09:39:42;96434.25;;;13.28;55.03
70589;BME280;58152;49.202;18.744;2023-03-25T09:47:28;96427.41;;;13.38;53.93
70589;BME280;58152;49.202;18.744;2023-03-25T09:49:59;96401.44;;;13.44;53.55
70589;BME280;58152;49.202;18.744;2023-03-25T09:52:37;96415.66;;;13.55;53.48
70589;BME280;58152;49.202;18.744;2023-03-25T09:55:07;96421.84;;;13.66;53.50
70589;BME280;58152;49.202;18.744;2023-03-25T09:57:42;96422.19;;;13.86;52.40
70589;BME280;58152;49.202;18.744;2023-03-25T10:00:09;96424.84;;;13.73;50.22
70589;BME280;58152;49.202;18.744;2023-03-25T10:02:48;96433.03;;;13.57;52.03
70589;BME280;58152;49.202;18.744;2023-03-25T10:05:49;96429.47;;;13.45;51.04
70589;BME280;58152;49.202;18.744;2023-03-25T10:11:32;96454.06;;;13.33;51.60
70589;BME280;58152;49.202;18.744;2023-03-25T10:17:27;96437.28;;;13.21;52.70
70589;BME280;58152;49.202;18.744;2023-03-25T10:20:16;96442.06;;;13.16;52.03
70589;BME280;58152;49.202;18.744;2023-03-25T10:23:21;96453.75;;;13.12;52.38
70589;BME280;58152;49.202;18.744;2023-03-25T10:25:55;96470.69;;;13.08;53.40
70589;BME280;58152;49.202;18.744;2023-03-25T10:28:28;96466.59;;;13.04;53.28
70589;BME280;58152;49.202;18.744;2023-03-25T10:30:57;96474.69;;;13.01;53.30
70589;BME280;58152;49.202;18.744;2023-03-25T10:35:49;96474.09;;;12.97;52.81
70589;BME280;58152;49.202;18.744;2023-03-25T10:40:44;96471.31;;;13.37;53.19
70589;BME280;58152;49.202;18.744;2023-03-25T10:43:43;96471.25;;;13.26;53.31
70589;BME280;58152;49.202;18.744;2023-03-25T10:48:54;96463.56;;;13.10;53.46
70589;BME280;58152;49.202;18.744;2023-03-25T10:51:25;96464.91;;;13.03;52.86
70589;BME280;58152;49.202;18.744;2023-03-25T10:53:55;96454.25;;;13.05;53.40
70589;BME280;58152;49.202;18.744;2023-03-25T10:56:21;96462.59;;;13.11;53.65
70589;BME280;58152;49.202;18.744;2023-03-25T10:58:52;96437.53;;;13.06;53.36
70589;BME280;58152;49.202;18.744;2023-03-25T11:01:26;96436.78;;;13.04;54.02
70589;BME280;58152;49.202;18.744;2023-03-25T11:03:56;96446.03;;;13.09;54.07
70589;BME280;58152;49.202;18.744;2023-03-25T11:06:35;96430.56;;;13.05;53.28
70589;BME280;58152;49.202;18.744;2023-03-25T11:11:33;96431.00;;;13.11;53.17
70589;BME280;58152;49.202;18.744;2023-03-25T11:14:00;96435.63;;;13.20;53.19
70589;BME280;58152;49.202;18.744;2023-03-25T11:16:31;96433.00;;;13.20;53.04
70589;BME280;58152;49.202;18.744;2023-03-25T11:18:59;96437.97;;;13.25;53.20
70589;BME280;58152;49.202;18.744;2023-03-25T11:21:31;96443.31;;;13.23;53.85
70589;BME280;58152;49.202;18.744;2023-03-25T11:23:57;96447.13;;;13.19;52.98
70589;BME280;58152;49.202;18.744;2023-03-25T11:26:27;96445.84;;;13.12;53.08
70589;BME280;58152;49.202;18.744;2023-03-25T11:29:14;96436.25;;;13.11;53.36
70589;BME280;58152;49.202;18.744;2023-03-25T11:31:42;96447.31;;;13.16;54.03
70589;BME280;58152;49.202;18.744;2023-03-25T11:39:28;96414.56;;;13.33;54.92
70589;BME280;58152;49.202;18.744;2023-03-25T11:41:57;96418.03;;;13.34;54.87
70589;BME280;58152;49.202;18.744;2023-03-25T11:44:30;96427.94;;;13.30;55.23
70589;BME280;58152;49.202;18.744;2023-03-25T11:47:01;96412.59;;;13.24;54.79
70589;BME280;58152;49.202;18.744;2023-03-25T11:49:28;96406.66;;;13.20;54.72
70589;BME280;58152;49.202;18.744;2023-03-25T11:52:02;96413.81;;;13.18;55.05
70589;BME280;58152;49.202;18.744;2023-03-25T11:54:31;96413.81;;;13.18;54.98
70589;BME280;58152;49.202;18.744;2023-03-25T11:57:05;96407.19;;;13.26;54.71
70589;BME280;58152;49.202;18.744;2023-03-25T11:59:38;96407.38;;;13.35;54.27
70589;BME280;58152;49.202;18.744;2023-03-25T12:02:25;96410.50;;;13.53;53.20
70589;BME280;58152;49.202;18.744;2023-03-25T12:05:01;96403.31;;;13.55;53.51
70589;BME280;58152;49.202;18.744;2023-03-25T12:07:28;96405.22;;;13.53;53.50
70589;BME280;58152;49.202;18.744;2023-03-25T12:09:56;96415.09;;;13.86;52.92
70589;BME280;58152;49.202;18.744;2023-03-25T12:12:51;96403.81;;;14.90;51.05
70589;BME280;58152;49.202;18.744;2023-03-25T12:15:41;96403.25;;;15.74;49.43
70589;BME280;58152;49.202;18.744;2023-03-25T12:18:29;96395.03;;;15.89;49.47
70589;BME280;58152;49.202;18.744;2023-03-25T12:21:08;96405.72;;;15.33;51.30
70589;BME280;58152;49.202;18.744;2023-03-25T12:23:52;96397.91;;;14.97;50.96
70589;BME280;58152;49.202;18.744;2023-03-25T12:26:51;96421.66;;;14.64;50.84
70589;BME280;58152;49.202;18.744;2023-03-25T12:29:51;96449.44;;;14.21;50.39
70589;BME280;58152;49.202;18.744;2023-03-25T12:40:35;96420.56;;;13.35;50.89
70589;BME280;58152;49.202;18.744;2023-03-25T12:43:39;96418.88;;;13.34;50.15
70589;BME280;58152;49.202;18.744;2023-03-25T12:52:29;96416.56;;;13.30;50.90
70589;BME280;58152;49.202;18.744;2023-03-25T13:00:47;96392.28;;;13.37;51.18
70589;BME280;58152;49.202;18.744;2023-03-25T13:06:31;96389.06;;;13.34;50.19
70589;BME280;58152;49.202;18.744;2023-03-25T13:09:33;96386.00;;;13.27;50.27
70589;BME280;58152;49.202;18.744;2023-03-25T13:15:48;96383.38;;;13.14;50.45
70589;BME280;58152;49.202;18.744;2023-03-25T13:18:24;96385.59;;;13.08;50.18
70589;BME280;58152;49.202;18.744;2023-03-25T13:21:12;96381.28;;;13.07;49.95
70589;BME280;58152;49.202;18.744;2023-03-25T13:24:05;96380.44;;;13.06;50.54
70589;BME280;58152;49.202;18.744;2023-03-25T13:26:34;96379.63;;;13.06;50.79
70589;BME280;58152;49.202;18.744;2023-03-25T13:29:05;96385.59;;;13.08;49.94
70589;BME280;58152;49.202;18.744;2023-03-25T13:31:39;96367.81;;;13.11;49.91
70589;BME280;58152;49.202;18.744;2023-03-25T13:34:33;96378.53;;;13.08;48.11
70589;BME280;58152;49.202;18.744;2023-03-25T13:37:44;96357.16;;;13.00;48.08
70589;BME280;58152;49.202;18.744;2023-03-25T13:40:25;96395.41;;;13.06;48.43
70589;BME280;58152;49.202;18.744;2023-03-25T13:45:51;96374.94;;;13.09;49.20
70589;BME280;58152;49.202;18.744;2023-03-25T13:48:25;96368.53;;;13.01;49.30
70589;BME280;58152;49.202;18.744;2023-03-25T13:51:04;96376.88;;;13.07;48.84
70589;BME280;58152;49.202;18.744;2023-03-25T14:13:17;96356.97;;;12.90;47.06
70589;BME280;58152;49.202;18.744;2023-03-25T14:16:04;96360.56;;;12.89;47.35
70589;BME280;58152;49.202;18.744;2023-03-25T14:18:32;96363.09;;;12.91;48.33
70589;BME280;58152;49.202;18.744;2023-03-25T14:26:42;96382.78;;;12.98;48.66
70589;BME280;58152;49.202;18.744;2023-03-25T14:34:44;96394.34;;;12.95;48.56
70589;BME280;58152;49.202;18.744;2023-03-25T14:37:22;96393.06;;;13.01;47.91
70589;BME280;58152;49.202;18.744;2023-03-25T14:40:44;96398.47;;;13.00;48.54
70589;BME280;58152;49.202;18.744;2023-03-25T14:43:00;96387.19;;;12.97;47.91
70589;BME280;58152;49.202;18.744;2023-03-25T14:47:57;96391.00;;;12.93;48.39
70589;BME280;58152;49.202;18.744;2023-03-25T14:53:09;96396.03;;;12.96;46.67
70589;BME280;58152;49.202;18.744;2023-03-25T14:55:46;96403.31;;;12.93;47.80
70589;BME280;58152;49.202;18.744;2023-03-25T14:58:20;96415.84;;;12.89;47.61
70589;BME280;58152;49.202;18.744;2023-03-25T15:03:48;96455.09;;;13.05;45.95
70589;BME280;58152;49.202;18.744;2023-03-25T15:06:36;96442.88;;;13.17;45.03
70589;BME280;58152;49.202;18.744;2023-03-25T15:09:17;96433.44;;;13.02;44.72
70589;BME280;58152;49.202;18.744;2023-03-25T15:27:24;96421.41;;;14.32;41.75
70589;BME280;58152;49.202;18.744;2023-03-25T16:08:51;96420.91;;;13.55;42.16